ADDS METAR Data INFO
IDs: Format: Raw Decoded Include TAF

Data at: 1056 UTC 20 Sep 2017

KCPT 201055Z AUTO 18010KT 10SM CLR 24/23 A2988 RMK AO2
KCPT 201035Z AUTO 18009KT 10SM CLR 24/23 A2988 RMK AO2
KCPT 201015Z AUTO 18010KT 10SM CLR 25/23 A2987 RMK AO2
KCPT 200955Z AUTO 18010KT 10SM CLR 25/23 A2987 RMK AO2
KCPT 200935Z AUTO 19008G14KT 10SM CLR 25/23 A2987 RMK AO2
KCPT 200915Z AUTO 18008KT 10SM CLR 25/23 A2987 RMK AO2
KCPT 200855Z AUTO 18009G14KT 10SM CLR 25/23 A2986 RMK AO2
KCPT 200835Z AUTO 17010KT 10SM CLR 25/23 A2986 RMK AO2
KCPT 200815Z AUTO 17009KT 10SM CLR 25/23 A2987 RMK AO2
KCPT 200755Z AUTO 18009KT 10SM CLR 25/23 A2987 RMK AO2
KCPT 200735Z AUTO 18010KT 10SM CLR 25/23 A2987 RMK AO2
KCPT 200715Z AUTO 18008KT 10SM CLR 25/23 A2987 RMK AO2
KCPT 200655Z AUTO 17006KT 10SM CLR 26/23 A2988 RMK AO2
KCPT 200635Z AUTO 17006KT 10SM CLR 26/23 A2987 RMK AO2
KCPT 200615Z AUTO 16007KT 10SM CLR 26/22 A2987 RMK AO2
KCPT 200555Z AUTO 16009KT 10SM CLR 26/22 A2986 RMK AO2
KCPT 200535Z AUTO 15007KT 10SM CLR 27/22 A2987 RMK AO2
KCPT 200515Z AUTO 16007KT 10SM CLR 27/22 A2987 RMK AO2
KCPT 200455Z AUTO 15007KT 10SM CLR 27/22 A2987 RMK AO2
KCPT 200435Z AUTO 15007KT 10SM CLR 27/22 A2988 RMK AO2
KCPT 200415Z AUTO 15007KT 10SM FEW048 28/22 A2989 RMK AO2
KCPT 200355Z AUTO 15006KT 10SM FEW048 28/22 A2989 RMK AO2
KCPT 200335Z AUTO 17006KT 10SM CLR 28/23 A2989 RMK AO2
KCPT 200315Z AUTO 18006KT 10SM CLR 29/23 A2988 RMK AO2
KCPT 200255Z AUTO 17007KT 10SM CLR 29/23 A2987 RMK AO2
KCPT 200235Z AUTO 16007KT 10SM CLR 29/23 A2987 RMK AO2 LTG DSNT N AND NW
KCPT 200215Z AUTO 17008KT 10SM CLR 30/22 A2986 RMK AO2 LTG DSNT N AND NW
KCPT 200155Z AUTO 17008KT 10SM CLR 30/22 A2985 RMK AO2 LTG DSNT NW
KCPT 200135Z AUTO 17009G17KT 10SM CLR 30/21 A2983 RMK AO2 LTG DSNT NW
KCPT 200115Z AUTO 17009G14KT 10SM CLR 31/21 A2982 RMK AO2
KCPT 200055Z AUTO 17009G14KT 10SM CLR 31/21 A2982 RMK AO2
KCPT 200035Z AUTO 17010KT 10SM CLR 31/21 A2981 RMK AO2
KCPT 200015Z AUTO 17011KT 10SM CLR 32/20 A2980 RMK AO2
KCPT 192355Z AUTO 18014KT 10SM CLR 32/20 A2981 RMK AO2
KCPT 192335Z AUTO 18012G20KT 10SM CLR 33/20 A2980 RMK AO2
KCPT 192315Z AUTO 18017KT 10SM CLR 33/20 A2980 RMK AO2
KCPT 192255Z AUTO 18014G20KT 10SM CLR 33/20 A2979 RMK AO2
KCPT 192235Z AUTO 18015G21KT 10SM CLR 34/20 A2979 RMK AO2
KCPT 192215Z AUTO 17012G20KT 10SM CLR 35/20 A2979 RMK AO2
KCPT 192155Z AUTO 17013G20KT 10SM FEW055 34/20 A2980 RMK AO2
KCPT 192135Z AUTO 18014KT 10SM FEW055 35/21 A2981 RMK AO2
KCPT 192115Z AUTO 18015G21KT 10SM FEW060 35/21 A2982 RMK AO2
KCPT 192055Z AUTO 19015KT 10SM CLR 35/21 A2983 RMK AO2
KCPT 192035Z AUTO 17014KT 10SM FEW055 FEW070 35/20 A2984 RMK AO2
KCPT 192015Z AUTO 19013G19KT 10SM FEW055 FEW070 34/21 A2985 RMK AO2
KCPT 191955Z AUTO 20013G18KT 10SM CLR 34/21 A2986 RMK AO2
KCPT 191935Z AUTO 20011G19KT 170V230 10SM CLR 35/21 A2987 RMK AO2
KCPT 191915Z AUTO 19013G18KT 10SM CLR 34/22 A2988 RMK AO2
KCPT 191855Z AUTO 19014G19KT 10SM CLR 34/22 A2989 RMK AO2
KCPT 191835Z AUTO 19011KT 10SM CLR 34/23 A2990 RMK AO2
KCPT 191815Z AUTO 18009G18KT 10SM CLR 33/23 A2992 RMK AO2
KCPT 191755Z AUTO 19015G20KT 10SM CLR 33/23 A2992 RMK AO2
KCPT 191735Z AUTO 19012G18KT 10SM CLR 32/24 A2994 RMK AO2
KCPT 191715Z AUTO 19013KT 10SM CLR 31/24 A2994 RMK AO2
KCPT 191655Z AUTO 20012G17KT 10SM FEW025 31/24 A2995 RMK AO2
KCPT 191635Z AUTO 20010G17KT 10SM FEW020 30/24 A2996 RMK AO2
KCPT 191615Z AUTO 20011G18KT 10SM BKN019 29/24 A2996 RMK AO2
KCPT 191555Z AUTO 20010G17KT 10SM OVC018 28/24 A2996 RMK AO2
KCPT 191535Z AUTO 19014KT 9SM OVC015 27/24 A2997 RMK AO2
KCPT 191515Z AUTO 19014KT 10SM OVC013 27/24 A2997 RMK AO2
KCPT 191455Z AUTO 18013KT 9SM OVC013 26/24 A2996 RMK AO2
KCPT 191435Z AUTO 19012KT 9SM OVC012 26/24 A2996 RMK AO2
KCPT 191415Z AUTO 19010G16KT 8SM OVC011 25/24 A2996 RMK AO2
KCPT 191355Z AUTO 20009G15KT 7SM BKN008 BKN013 25/25 A2996 RMK AO2
KCPT 191335Z AUTO 18010G15KT 6SM BR BKN007 OVC012 24/24 A2995 RMK AO2
KCPT 191315Z AUTO 17010G18KT 5SM BR OVC006 24/24 A2995 RMK AO2
KCPT 191255Z AUTO 17010KT 4SM BR OVC005 24/24 A2994 RMK AO2
KCPT 191235Z AUTO 18009G16KT 3SM BR OVC004 23/23 A2994 RMK AO2
KCPT 191215Z AUTO 18010G15KT 4SM BR OVC003 23/23 A2994 RMK AO2
KCPT 191155Z AUTO 17010KT 4SM BR OVC003 23/23 A2994 RMK AO2
KCPT 191135Z AUTO 18009KT 4SM BR OVC003 23/23 A2994 RMK AO2
KCPT 191115Z AUTO 17010KT 5SM BR OVC003 23/23 A2994 RMK AO2
KCPT 191055Z AUTO 17008KT 5SM BR OVC003 23/23 A2993 RMK AO2
KCPT 191035Z AUTO 17007KT 6SM BR BKN003 23/23 A2993 RMK AO2
KCPT 191015Z AUTO 17007KT 7SM CLR 23/23 A2994 RMK AO2
KCPT 190955Z AUTO 7SM CLR A2993 RMK AO2
KCPT 190935Z AUTO 17006KT 9SM CLR 23/23 A2993 RMK AO2
KCPT 190915Z AUTO 16007KT 10SM CLR 23/23 A2993 RMK AO2
KCPT 190855Z AUTO 18007KT 10SM CLR 23/23 A2993 RMK AO2
KCPT 190835Z AUTO 17006KT 10SM CLR 23/23 A2993 RMK AO2
KCPT 190815Z AUTO 17007KT 10SM CLR 23/23 A2993 RMK AO2
KCPT 190755Z AUTO 17007KT 10SM CLR 23/23 A2993 RMK AO2
KCPT 190735Z AUTO 17007KT 10SM CLR 23/23 A2993 RMK AO2
KCPT 190715Z AUTO 18006KT 10SM CLR 24/24 A2993 RMK AO2
KCPT 190655Z AUTO 18006G11KT 10SM CLR 24/24 A2993 RMK AO2
KCPT 190635Z AUTO 17008KT 10SM CLR 24/23 A2993 RMK AO2
KCPT 190615Z AUTO 17008KT 10SM CLR 24/23 A2994 RMK AO2
KCPT 190555Z AUTO 17010KT 10SM CLR 25/23 A2994 RMK AO2
KCPT 190535Z AUTO 16008KT 10SM CLR 25/23 A2994 RMK AO2
KCPT 190515Z AUTO 16006KT 10SM CLR 25/23 A2995 RMK AO2
KCPT 190455Z AUTO 17009KT 10SM CLR 26/23 A2995 RMK AO2
KCPT 190435Z AUTO 16008G13KT 10SM CLR 26/23 A2996 RMK AO2
KCPT 190415Z AUTO 16008KT 10SM CLR 26/23 A2996 RMK AO2
KCPT 190355Z AUTO 16009KT 10SM CLR 27/23 A2995 RMK AO2
KCPT 190335Z AUTO 15010KT 10SM CLR 27/23 A2995 RMK AO2
KCPT 190315Z AUTO 15011KT 10SM CLR 27/23 A2995 RMK AO2
KCPT 190255Z AUTO 15011KT 10SM CLR 28/21 A2994 RMK AO2
KCPT 190235Z AUTO 15011KT 10SM CLR 28/19 A2994 RMK AO2
KCPT 190215Z AUTO 15007KT 10SM CLR 28/17 A2994 RMK AO2
KCPT 190155Z AUTO 15007KT 10SM CLR 28/17 A2994 RMK AO2
KCPT 190135Z AUTO 15006KT 10SM CLR 28/17 A2993 RMK AO2
KCPT 190115Z AUTO 15004KT 10SM CLR 30/18 A2993 RMK AO2
KCPT 190055Z AUTO 17005KT 10SM CLR 29/18 A2992 RMK AO2
KCPT 190035Z AUTO 18004KT 10SM CLR 30/18 A2992 RMK AO2
KCPT 190015Z AUTO 19004KT 10SM CLR 30/18 A2991 RMK AO2
KCPT 182355Z AUTO 20006KT 10SM CLR 32/18 A2991 RMK AO2
KCPT 182335Z AUTO 20008KT 10SM CLR 32/16 A2991 RMK AO2
KCPT 182315Z AUTO 20009KT 10SM CLR 33/16 A2991 RMK AO2